Chacalluta Airport
SCAR : now visible

Airfield :











YOU CAN JOIN US ON...

 
LOGIN :

Register | Disclaimer

   EN    FR    IT 

 









Legend :    VFR   Marginal VFR   IFR   Intensive IFR   Very Intensive IFR
Visi :
Ceiling :
>= 8 km
>= 3000ft
5 to 8 km
1000 to 3000 ft
1500m to 5 km
500 to 1000 ft
800 to 1500m
200 to 500 ft
< 800m
< 200 ft
Symbols :   Thunderstorms  Fog  Heavy snow  Heavy precipitations  Wind > 20 kt






- Airport Elevation : 167 ft
- IATA code : ARI


SCAR - Chacalluta

CURRENT METAR :
  • 210700Z 23003KT 9999 BKN100 23/18 Q1011

EXPIRED METARs :
  • 210600Z VRB01KT CAVOK 23/17 Q1012
  • 210500Z 31002KT CAVOK 23/17 Q1012

TAF TAF SCAR
Valid from the 21 at 06:00 until the 22 at 06:00 UTC


210424Z 2106/2206 33004KT 9999 BKN050 TN22/2107Z TX27/2119Z
BECMG 2110/2112 17004KT CAVOK
BECMG 2115/2117 22014KT
BECMG 2122/2200 18004KT BKN100
BECMG 2204/2206 33004KT



MET'MAP, your aeronautical weather chart ! - Copyright ORBIFLY December 2007 - Disclaimer

ORBIFLY MET'MAP TEAM :

Programming & Development : Alexandra Zaïnal
Concept & original design : Baudouin d'Aumeries
Assistance for programming : Marc-Olivier Méhu
Technical & hardware support : Manuel Goepfert

Contact : metmap@orbifly.com




SOURCES & CREDITS :

   NOAA       Earth
Advisory